sensor_id;sensor_type;location;lat;lon;timestamp;P1;durP1;ratioP1;P2;durP2;ratioP2
14247;SDS011;7208;49.826;6.004;2022-09-06T00:00:09;5.97;;;4.50;;
14247;SDS011;7208;49.826;6.004;2022-09-06T00:02:36;4.73;;;4.20;;
14247;SDS011;7208;49.826;6.004;2022-09-06T00:05:02;11.43;;;4.53;;
14247;SDS011;7208;49.826;6.004;2022-09-06T00:07:28;7.00;;;4.27;;
14247;SDS011;7208;49.826;6.004;2022-09-06T00:09:54;5.67;;;4.70;;
14247;SDS011;7208;49.826;6.004;2022-09-06T00:12:21;6.13;;;4.73;;
14247;SDS011;7208;49.826;6.004;2022-09-06T00:14:47;6.37;;;5.20;;
14247;SDS011;7208;49.826;6.004;2022-09-06T00:17:13;5.10;;;4.70;;
14247;SDS011;7208;49.826;6.004;2022-09-06T00:19:39;5.80;;;5.27;;
14247;SDS011;7208;49.826;6.004;2022-09-06T00:22:05;8.47;;;5.17;;
14247;SDS011;7208;49.826;6.004;2022-09-06T00:24:31;7.13;;;5.27;;
14247;SDS011;7208;49.826;6.004;2022-09-06T00:26:57;8.00;;;5.20;;
14247;SDS011;7208;49.826;6.004;2022-09-06T00:29:23;7.03;;;5.70;;
14247;SDS011;7208;49.826;6.004;2022-09-06T00:31:49;7.20;;;5.57;;
14247;SDS011;7208;49.826;6.004;2022-09-06T00:34:15;6.17;;;5.07;;
14247;SDS011;7208;49.826;6.004;2022-09-06T00:36:41;11.23;;;5.20;;
14247;SDS011;7208;49.826;6.004;2022-09-06T00:39:07;7.13;;;5.40;;
14247;SDS011;7208;49.826;6.004;2022-09-06T00:41:33;6.73;;;5.30;;
14247;SDS011;7208;49.826;6.004;2022-09-06T00:43:59;5.70;;;5.20;;
14247;SDS011;7208;49.826;6.004;2022-09-06T00:46:26;10.23;;;5.37;;
14247;SDS011;7208;49.826;6.004;2022-09-06T00:48:54;5.67;;;5.17;;
14247;SDS011;7208;49.826;6.004;2022-09-06T00:51:21;7.30;;;5.40;;
14247;SDS011;7208;49.826;6.004;2022-09-06T00:53:48;6.77;;;5.77;;
14247;SDS011;7208;49.826;6.004;2022-09-06T00:56:14;8.07;;;5.40;;
14247;SDS011;7208;49.826;6.004;2022-09-06T00:58:40;8.83;;;5.27;;
14247;SDS011;7208;49.826;6.004;2022-09-06T01:01:06;5.37;;;4.87;;
14247;SDS011;7208;49.826;6.004;2022-09-06T01:03:32;7.53;;;5.20;;
14247;SDS011;7208;49.826;6.004;2022-09-06T01:08:52;6.07;;;4.70;;
14247;SDS011;7208;49.826;6.004;2022-09-06T01:16:38;4.77;;;4.37;;
14247;SDS011;7208;49.826;6.004;2022-09-06T01:19:11;7.07;;;4.80;;
14247;SDS011;7208;49.826;6.004;2022-09-06T01:27:03;6.63;;;4.83;;
14247;SDS011;7208;49.826;6.004;2022-09-06T01:29:36;7.10;;;5.07;;
14247;SDS011;7208;49.826;6.004;2022-09-06T01:32:15;8.27;;;5.57;;
14247;SDS011;7208;49.826;6.004;2022-09-06T01:37:44;10.87;;;5.50;;
14247;SDS011;7208;49.826;6.004;2022-09-06T01:40:10;8.23;;;5.10;;
14247;SDS011;7208;49.826;6.004;2022-09-06T01:42:36;5.93;;;5.27;;
14247;SDS011;7208;49.826;6.004;2022-09-06T01:45:04;7.30;;;5.77;;
14247;SDS011;7208;49.826;6.004;2022-09-06T02:00:35;8.50;;;6.23;;
14247;SDS011;7208;49.826;6.004;2022-09-06T02:07:59;7.73;;;5.60;;
14247;SDS011;7208;49.826;6.004;2022-09-06T02:10:27;7.07;;;5.57;;
14247;SDS011;7208;49.826;6.004;2022-09-06T02:12:56;8.63;;;5.90;;
14247;SDS011;7208;49.826;6.004;2022-09-06T02:15:25;11.27;;;6.67;;
14247;SDS011;7208;49.826;6.004;2022-09-06T02:17:56;10.37;;;6.30;;
14247;SDS011;7208;49.826;6.004;2022-09-06T02:20:28;8.17;;;7.40;;
14247;SDS011;7208;49.826;6.004;2022-09-06T02:22:55;7.90;;;6.27;;
14247;SDS011;7208;49.826;6.004;2022-09-06T02:25:41;11.60;;;8.80;;
14247;SDS011;7208;49.826;6.004;2022-09-06T02:28:08;8.03;;;6.90;;
14247;SDS011;7208;49.826;6.004;2022-09-06T02:30:36;10.87;;;7.17;;
14247;SDS011;7208;49.826;6.004;2022-09-06T02:33:06;8.63;;;6.60;;
14247;SDS011;7208;49.826;6.004;2022-09-06T02:35:40;10.87;;;8.40;;
14247;SDS011;7208;49.826;6.004;2022-09-06T02:38:07;9.20;;;7.03;;
14247;SDS011;7208;49.826;6.004;2022-09-06T02:40:33;8.97;;;6.33;;
14247;SDS011;7208;49.826;6.004;2022-09-06T02:43:00;7.27;;;6.37;;
14247;SDS011;7208;49.826;6.004;2022-09-06T02:45:26;6.93;;;6.07;;
14247;SDS011;7208;49.826;6.004;2022-09-06T02:47:52;8.40;;;5.83;;
14247;SDS011;7208;49.826;6.004;2022-09-06T02:50:18;7.87;;;5.63;;
14247;SDS011;7208;49.826;6.004;2022-09-06T02:52:44;9.03;;;6.20;;
14247;SDS011;7208;49.826;6.004;2022-09-06T02:55:10;6.13;;;5.63;;
14247;SDS011;7208;49.826;6.004;2022-09-06T02:57:36;7.73;;;5.90;;
14247;SDS011;7208;49.826;6.004;2022-09-06T03:00:03;19.13;;;9.13;;
14247;SDS011;7208;49.826;6.004;2022-09-06T03:02:29;65.40;;;8.20;;
14247;SDS011;7208;49.826;6.004;2022-09-06T03:04:55;121.47;;;9.80;;
14247;SDS011;7208;49.826;6.004;2022-09-06T03:07:21;46.60;;;7.13;;
14247;SDS011;7208;49.826;6.004;2022-09-06T03:09:47;85.50;;;8.57;;
14247;SDS011;7208;49.826;6.004;2022-09-06T03:12:13;91.60;;;9.40;;
14247;SDS011;7208;49.826;6.004;2022-09-06T03:14:39;97.97;;;8.70;;
14247;SDS011;7208;49.826;6.004;2022-09-06T03:17:05;149.03;;;10.47;;
14247;SDS011;7208;49.826;6.004;2022-09-06T03:19:31;139.93;;;9.23;;
14247;SDS011;7208;49.826;6.004;2022-09-06T03:21:57;101.77;;;8.77;;
14247;SDS011;7208;49.826;6.004;2022-09-06T03:24:23;71.43;;;8.10;;
14247;SDS011;7208;49.826;6.004;2022-09-06T03:26:49;52.77;;;8.03;;
14247;SDS011;7208;49.826;6.004;2022-09-06T03:29:15;92.17;;;9.57;;
14247;SDS011;7208;49.826;6.004;2022-09-06T03:31:41;65.20;;;8.87;;
14247;SDS011;7208;49.826;6.004;2022-09-06T03:34:07;70.93;;;7.73;;
14247;SDS011;7208;49.826;6.004;2022-09-06T03:36:34;51.70;;;7.17;;
14247;SDS011;7208;49.826;6.004;2022-09-06T03:39:00;25.83;;;6.23;;
14247;SDS011;7208;49.826;6.004;2022-09-06T03:41:26;20.50;;;6.60;;
14247;SDS011;7208;49.826;6.004;2022-09-06T03:43:52;9.03;;;6.20;;
14247;SDS011;7208;49.826;6.004;2022-09-06T03:46:18;13.97;;;6.50;;
14247;SDS011;7208;49.826;6.004;2022-09-06T03:48:44;9.87;;;6.07;;
14247;SDS011;7208;49.826;6.004;2022-09-06T03:51:11;9.63;;;6.50;;
14247;SDS011;7208;49.826;6.004;2022-09-06T03:53:37;8.57;;;7.10;;
14247;SDS011;7208;49.826;6.004;2022-09-06T03:56:03;12.53;;;8.00;;
14247;SDS011;7208;49.826;6.004;2022-09-06T03:58:29;49.20;;;9.40;;
14247;SDS011;7208;49.826;6.004;2022-09-06T04:01:03;17.67;;;7.97;;
14247;SDS011;7208;49.826;6.004;2022-09-06T04:03:30;14.93;;;7.87;;
14247;SDS011;7208;49.826;6.004;2022-09-06T04:05:56;12.50;;;8.67;;
14247;SDS011;7208;49.826;6.004;2022-09-06T04:08:22;18.67;;;12.10;;
14247;SDS011;7208;49.826;6.004;2022-09-06T04:10:48;15.10;;;8.70;;
14247;SDS011;7208;49.826;6.004;2022-09-06T04:13:15;35.23;;;8.97;;
14247;SDS011;7208;49.826;6.004;2022-09-06T04:15:44;43.90;;;13.53;;
14247;SDS011;7208;49.826;6.004;2022-09-06T04:18:10;26.10;;;13.40;;
14247;SDS011;7208;49.826;6.004;2022-09-06T04:20:36;30.50;;;15.40;;
14247;SDS011;7208;49.826;6.004;2022-09-06T04:23:02;18.80;;;12.53;;
14247;SDS011;7208;49.826;6.004;2022-09-06T04:25:28;13.73;;;11.63;;
14247;SDS011;7208;49.826;6.004;2022-09-06T04:27:54;16.07;;;8.30;;
14247;SDS011;7208;49.826;6.004;2022-09-06T04:30:20;35.03;;;7.80;;
14247;SDS011;7208;49.826;6.004;2022-09-06T04:32:46;20.73;;;8.07;;
14247;SDS011;7208;49.826;6.004;2022-09-06T04:35:12;89.70;;;13.67;;
14247;SDS011;7208;49.826;6.004;2022-09-06T04:37:38;131.03;;;11.03;;
14247;SDS011;7208;49.826;6.004;2022-09-06T04:40:04;134.47;;;10.43;;
14247;SDS011;7208;49.826;6.004;2022-09-06T04:42:31;112.77;;;10.27;;
14247;SDS011;7208;49.826;6.004;2022-09-06T04:44:57;81.80;;;11.77;;
14247;SDS011;7208;49.826;6.004;2022-09-06T04:47:23;75.97;;;9.10;;
14247;SDS011;7208;49.826;6.004;2022-09-06T04:49:49;64.03;;;9.27;;
14247;SDS011;7208;49.826;6.004;2022-09-06T04:52:15;50.50;;;9.57;;
14247;SDS011;7208;49.826;6.004;2022-09-06T04:54:42;28.87;;;9.13;;
14247;SDS011;7208;49.826;6.004;2022-09-06T04:57:08;46.13;;;12.70;;
14247;SDS011;7208;49.826;6.004;2022-09-06T04:59:34;20.40;;;9.07;;
14247;SDS011;7208;49.826;6.004;2022-09-06T05:02:00;53.60;;;10.50;;
14247;SDS011;7208;49.826;6.004;2022-09-06T05:04:26;39.07;;;9.83;;
14247;SDS011;7208;49.826;6.004;2022-09-06T05:07:02;42.77;;;9.37;;
14247;SDS011;7208;49.826;6.004;2022-09-06T05:09:29;22.10;;;12.00;;
14247;SDS011;7208;49.826;6.004;2022-09-06T05:11:55;16.20;;;8.53;;
14247;SDS011;7208;49.826;6.004;2022-09-06T05:14:21;12.40;;;8.03;;
14247;SDS011;7208;49.826;6.004;2022-09-06T05:16:47;10.47;;;7.90;;
14247;SDS011;7208;49.826;6.004;2022-09-06T05:19:14;10.73;;;8.10;;
14247;SDS011;7208;49.826;6.004;2022-09-06T05:21:40;13.03;;;10.50;;
14247;SDS011;7208;49.826;6.004;2022-09-06T05:24:06;11.50;;;8.40;;
14247;SDS011;7208;49.826;6.004;2022-09-06T05:26:32;12.47;;;11.27;;
14247;SDS011;7208;49.826;6.004;2022-09-06T05:28:58;15.43;;;9.57;;
14247;SDS011;7208;49.826;6.004;2022-09-06T05:33:51;14.03;;;12.17;;
14247;SDS011;7208;49.826;6.004;2022-09-06T05:36:18;11.97;;;10.77;;
14247;SDS011;7208;49.826;6.004;2022-09-06T05:38:44;31.77;;;12.67;;
14247;SDS011;7208;49.826;6.004;2022-09-06T05:41:10;23.03;;;12.90;;
14247;SDS011;7208;49.826;6.004;2022-09-06T05:43:36;14.07;;;9.57;;
14247;SDS011;7208;49.826;6.004;2022-09-06T05:46:02;14.67;;;11.80;;
14247;SDS011;7208;49.826;6.004;2022-09-06T05:48:28;12.83;;;8.70;;
14247;SDS011;7208;49.826;6.004;2022-09-06T05:50:58;10.00;;;9.00;;
14247;SDS011;7208;49.826;6.004;2022-09-06T05:53:24;12.57;;;9.40;;
14247;SDS011;7208;49.826;6.004;2022-09-06T05:55:50;16.67;;;9.60;;
14247;SDS011;7208;49.826;6.004;2022-09-06T05:58:16;12.43;;;9.53;;
14247;SDS011;7208;49.826;6.004;2022-09-06T06:00:43;12.37;;;9.50;;
14247;SDS011;7208;49.826;6.004;2022-09-06T06:03:08;12.17;;;10.23;;
14247;SDS011;7208;49.826;6.004;2022-09-06T06:05:34;15.50;;;9.83;;
14247;SDS011;7208;49.826;6.004;2022-09-06T06:08:01;11.20;;;9.50;;
14247;SDS011;7208;49.826;6.004;2022-09-06T06:10:27;9.80;;;8.90;;
14247;SDS011;7208;49.826;6.004;2022-09-06T06:12:53;10.80;;;9.80;;
14247;SDS011;7208;49.826;6.004;2022-09-06T06:15:21;11.83;;;9.73;;
14247;SDS011;7208;49.826;6.004;2022-09-06T06:17:47;10.23;;;9.00;;
14247;SDS011;7208;49.826;6.004;2022-09-06T06:20:13;10.57;;;9.47;;
14247;SDS011;7208;49.826;6.004;2022-09-06T06:22:39;11.87;;;9.47;;
14247;SDS011;7208;49.826;6.004;2022-09-06T06:25:05;9.73;;;8.80;;
14247;SDS011;7208;49.826;6.004;2022-09-06T06:27:32;12.07;;;8.80;;
14247;SDS011;7208;49.826;6.004;2022-09-06T06:29:59;12.97;;;8.37;;
14247;SDS011;7208;49.826;6.004;2022-09-06T06:32:25;10.83;;;8.33;;
14247;SDS011;7208;49.826;6.004;2022-09-06T06:34:51;11.20;;;8.83;;
14247;SDS011;7208;49.826;6.004;2022-09-06T06:37:17;10.73;;;8.90;;
14247;SDS011;7208;49.826;6.004;2022-09-06T06:39:43;11.53;;;9.37;;
14247;SDS011;7208;49.826;6.004;2022-09-06T06:42:09;10.87;;;9.77;;
14247;SDS011;7208;49.826;6.004;2022-09-06T06:44:35;14.57;;;10.53;;
14247;SDS011;7208;49.826;6.004;2022-09-06T06:47:01;18.80;;;11.63;;
14247;SDS011;7208;49.826;6.004;2022-09-06T06:49:27;12.97;;;10.53;;
14247;SDS011;7208;49.826;6.004;2022-09-06T06:51:53;18.03;;;11.53;;
14247;SDS011;7208;49.826;6.004;2022-09-06T06:54:19;20.93;;;11.83;;
14247;SDS011;7208;49.826;6.004;2022-09-06T06:56:45;15.97;;;11.00;;
14247;SDS011;7208;49.826;6.004;2022-09-06T06:59:11;16.70;;;10.70;;
14247;SDS011;7208;49.826;6.004;2022-09-06T07:01:38;10.90;;;9.80;;
14247;SDS011;7208;49.826;6.004;2022-09-06T07:04:04;11.73;;;9.73;;
14247;SDS011;7208;49.826;6.004;2022-09-06T07:06:38;11.47;;;9.90;;
14247;SDS011;7208;49.826;6.004;2022-09-06T07:09:10;13.23;;;10.17;;
14247;SDS011;7208;49.826;6.004;2022-09-06T07:11:36;123.47;;;23.33;;
14247;SDS011;7208;49.826;6.004;2022-09-06T07:14:02;15.93;;;14.23;;
14247;SDS011;7208;49.826;6.004;2022-09-06T07:16:28;17.27;;;15.10;;
14247;SDS011;7208;49.826;6.004;2022-09-06T07:18:54;22.90;;;17.00;;
14247;SDS011;7208;49.826;6.004;2022-09-06T07:21:21;23.60;;;17.53;;
14247;SDS011;7208;49.826;6.004;2022-09-06T07:23:51;17.13;;;15.37;;
14247;SDS011;7208;49.826;6.004;2022-09-06T07:26:18;13.93;;;12.63;;
14247;SDS011;7208;49.826;6.004;2022-09-06T07:28:44;12.80;;;11.10;;
14247;SDS011;7208;49.826;6.004;2022-09-06T07:31:13;10.10;;;9.30;;
14247;SDS011;7208;49.826;6.004;2022-09-06T07:33:39;9.63;;;8.67;;
14247;SDS011;7208;49.826;6.004;2022-09-06T07:36:06;8.23;;;7.60;;
14247;SDS011;7208;49.826;6.004;2022-09-06T07:38:33;6.87;;;5.80;;
14247;SDS011;7208;49.826;6.004;2022-09-06T07:41:09;7.27;;;5.93;;
14247;SDS011;7208;49.826;6.004;2022-09-06T07:43:35;6.53;;;5.93;;
14247;SDS011;7208;49.826;6.004;2022-09-06T07:48:31;6.13;;;5.53;;
14247;SDS011;7208;49.826;6.004;2022-09-06T07:51:05;8.33;;;5.53;;
14247;SDS011;7208;49.826;6.004;2022-09-06T07:53:31;5.70;;;5.00;;
14247;SDS011;7208;49.826;6.004;2022-09-06T07:55:58;4.63;;;4.20;;
14247;SDS011;7208;49.826;6.004;2022-09-06T07:58:24;7.40;;;5.03;;
14247;SDS011;7208;49.826;6.004;2022-09-06T08:00:50;5.90;;;5.20;;
14247;SDS011;7208;49.826;6.004;2022-09-06T08:03:16;5.77;;;5.27;;
14247;SDS011;7208;49.826;6.004;2022-09-06T08:05:42;6.30;;;5.50;;
14247;SDS011;7208;49.826;6.004;2022-09-06T08:08:08;5.07;;;4.77;;
14247;SDS011;7208;49.826;6.004;2022-09-06T08:10:34;6.23;;;5.83;;
14247;SDS011;7208;49.826;6.004;2022-09-06T08:13:00;5.77;;;5.37;;
14247;SDS011;7208;49.826;6.004;2022-09-06T08:15:26;5.27;;;4.80;;
14247;SDS011;7208;49.826;6.004;2022-09-06T08:17:54;6.90;;;4.33;;
14247;SDS011;7208;49.826;6.004;2022-09-06T08:20:20;5.83;;;5.23;;
14247;SDS011;7208;49.826;6.004;2022-09-06T08:22:46;4.90;;;4.53;;
14247;SDS011;7208;49.826;6.004;2022-09-06T08:25:12;5.90;;;5.17;;
14247;SDS011;7208;49.826;6.004;2022-09-06T08:27:38;4.97;;;4.67;;
14247;SDS011;7208;49.826;6.004;2022-09-06T08:30:05;4.57;;;4.17;;
14247;SDS011;7208;49.826;6.004;2022-09-06T08:32:34;4.53;;;4.23;;
14247;SDS011;7208;49.826;6.004;2022-09-06T08:35:03;4.03;;;3.73;;
14247;SDS011;7208;49.826;6.004;2022-09-06T08:37:29;5.00;;;4.60;;
14247;SDS011;7208;49.826;6.004;2022-09-06T08:39:55;4.33;;;3.93;;
14247;SDS011;7208;49.826;6.004;2022-09-06T08:42:21;4.60;;;4.20;;
14247;SDS011;7208;49.826;6.004;2022-09-06T08:44:49;4.20;;;3.80;;
14247;SDS011;7208;49.826;6.004;2022-09-06T08:47:16;4.47;;;4.03;;
14247;SDS011;7208;49.826;6.004;2022-09-06T09:00:15;4.53;;;4.13;;
14247;SDS011;7208;49.826;6.004;2022-09-06T09:02:43;4.07;;;3.77;;
14247;SDS011;7208;49.826;6.004;2022-09-06T09:05:26;4.50;;;4.13;;
14247;SDS011;7208;49.826;6.004;2022-09-06T09:10:40;4.17;;;3.60;;
14247;SDS011;7208;49.826;6.004;2022-09-06T09:13:07;3.83;;;3.40;;
14247;SDS011;7208;49.826;6.004;2022-09-06T09:15:35;4.10;;;3.80;;
14247;SDS011;7208;49.826;6.004;2022-09-06T09:18:01;3.47;;;3.17;;
14247;SDS011;7208;49.826;6.004;2022-09-06T09:20:28;3.57;;;3.27;;
14247;SDS011;7208;49.826;6.004;2022-09-06T09:22:54;3.57;;;3.23;;
14247;SDS011;7208;49.826;6.004;2022-09-06T09:25:21;3.53;;;3.23;;
14247;SDS011;7208;49.826;6.004;2022-09-06T09:27:48;3.73;;;3.30;;
14247;SDS011;7208;49.826;6.004;2022-09-06T09:30:21;3.30;;;3.00;;
14247;SDS011;7208;49.826;6.004;2022-09-06T09:32:48;3.63;;;3.20;;
14247;SDS011;7208;49.826;6.004;2022-09-06T09:35:22;4.03;;;3.63;;
14247;SDS011;7208;49.826;6.004;2022-09-06T09:37:58;4.67;;;3.20;;
14247;SDS011;7208;49.826;6.004;2022-09-06T09:40:27;3.80;;;3.03;;
14247;SDS011;7208;49.826;6.004;2022-09-06T09:42:53;3.77;;;3.40;;
14247;SDS011;7208;49.826;6.004;2022-09-06T09:45:25;4.57;;;3.70;;
14247;SDS011;7208;49.826;6.004;2022-09-06T09:47:52;3.90;;;3.50;;
14247;SDS011;7208;49.826;6.004;2022-09-06T09:50:31;4.60;;;3.30;;
14247;SDS011;7208;49.826;6.004;2022-09-06T09:53:17;3.33;;;3.13;;
14247;SDS011;7208;49.826;6.004;2022-09-06T09:55:44;4.43;;;4.03;;
14247;SDS011;7208;49.826;6.004;2022-09-06T09:58:17;3.60;;;3.30;;
14247;SDS011;7208;49.826;6.004;2022-09-06T10:00:43;3.50;;;3.00;;
14247;SDS011;7208;49.826;6.004;2022-09-06T10:03:11;4.63;;;3.80;;
14247;SDS011;7208;49.826;6.004;2022-09-06T10:05:37;4.73;;;3.33;;
14247;SDS011;7208;49.826;6.004;2022-09-06T10:08:04;3.63;;;3.33;;
14247;SDS011;7208;49.826;6.004;2022-09-06T10:10:37;3.83;;;3.30;;
14247;SDS011;7208;49.826;6.004;2022-09-06T10:13:05;3.93;;;3.40;;
14247;SDS011;7208;49.826;6.004;2022-09-06T10:17:58;4.37;;;2.93;;
14247;SDS011;7208;49.826;6.004;2022-09-06T10:20:27;5.00;;;2.60;;
14247;SDS011;7208;49.826;6.004;2022-09-06T10:23:13;3.53;;;3.00;;
14247;SDS011;7208;49.826;6.004;2022-09-06T10:28:33;4.87;;;2.97;;
14247;SDS011;7208;49.826;6.004;2022-09-06T10:33:31;2.95;;;2.75;;
14247;SDS011;7208;49.826;6.004;2022-09-06T10:36:02;3.13;;;2.90;;
14247;SDS011;7208;49.826;6.004;2022-09-06T10:46:28;3.28;;;3.00;;
14247;SDS011;7208;49.826;6.004;2022-09-06T10:48:56;3.25;;;2.90;;
14247;SDS011;7208;49.826;6.004;2022-09-06T10:51:42;5.20;;;4.70;;
14247;SDS011;7208;49.826;6.004;2022-09-06T10:54:10;3.30;;;2.92;;
14247;SDS011;7208;49.826;6.004;2022-09-06T11:01:43;3.22;;;2.75;;
14247;SDS011;7208;49.826;6.004;2022-09-06T11:04:13;4.30;;;2.95;;
14247;SDS011;7208;49.826;6.004;2022-09-06T11:06:44;3.55;;;3.10;;
14247;SDS011;7208;49.826;6.004;2022-09-06T11:09:28;3.38;;;2.35;;
14247;SDS011;7208;49.826;6.004;2022-09-06T11:12:02;3.58;;;2.47;;
14247;SDS011;7208;49.826;6.004;2022-09-06T11:14:28;4.05;;;2.63;;
14247;SDS011;7208;49.826;6.004;2022-09-06T11:19:48;3.78;;;2.30;;
14247;SDS011;7208;49.826;6.004;2022-09-06T11:27:26;2.35;;;2.05;;
14247;SDS011;7208;49.826;6.004;2022-09-06T11:29:58;2.92;;;1.80;;
14247;SDS011;7208;49.826;6.004;2022-09-06T11:35:46;4.50;;;1.92;;
14247;SDS011;7208;49.826;6.004;2022-09-06T11:37:47;2.85;;;2.00;;
14247;SDS011;7208;49.826;6.004;2022-09-06T11:40:23;2.05;;;1.80;;
14247;SDS011;7208;49.826;6.004;2022-09-06T11:45:18;3.33;;;1.90;;
14247;SDS011;7208;49.826;6.004;2022-09-06T11:47:48;1.95;;;1.45;;
14247;SDS011;7208;49.826;6.004;2022-09-06T11:55:24;2.22;;;2.03;;
14247;SDS011;7208;49.826;6.004;2022-09-06T11:57:56;4.07;;;2.00;;
14247;SDS011;7208;49.826;6.004;2022-09-06T12:00:23;3.13;;;1.80;;
14247;SDS011;7208;49.826;6.004;2022-09-06T12:02:50;4.82;;;1.58;;
14247;SDS011;7208;49.826;6.004;2022-09-06T12:05:21;2.83;;;1.33;;
14247;SDS011;7208;49.826;6.004;2022-09-06T12:12:58;1.63;;;1.17;;
14247;SDS011;7208;49.826;6.004;2022-09-06T12:15:25;1.60;;;1.15;;
14247;SDS011;7208;49.826;6.004;2022-09-06T12:17:52;3.05;;;1.00;;
14247;SDS011;7208;49.826;6.004;2022-09-06T12:23:03;4.05;;;1.30;;
14247;SDS011;7208;49.826;6.004;2022-09-06T12:28:05;1.17;;;0.98;;
14247;SDS011;7208;49.826;6.004;2022-09-06T12:30:37;3.20;;;1.25;;
14247;SDS011;7208;49.826;6.004;2022-09-06T12:33:04;2.20;;;1.20;;
14247;SDS011;7208;49.826;6.004;2022-09-06T12:35:30;3.17;;;1.17;;
14247;SDS011;7208;49.826;6.004;2022-09-06T12:38:05;3.25;;;1.27;;
14247;SDS011;7208;49.826;6.004;2022-09-06T12:40:31;1.60;;;1.10;;
14247;SDS011;7208;49.826;6.004;2022-09-06T12:42:58;1.30;;;1.20;;
14247;SDS011;7208;49.826;6.004;2022-09-06T12:45:25;1.55;;;1.00;;
14247;SDS011;7208;49.826;6.004;2022-09-06T12:48:02;1.40;;;0.82;;
14247;SDS011;7208;49.826;6.004;2022-09-06T12:50:28;1.05;;;0.80;;
14247;SDS011;7208;49.826;6.004;2022-09-06T12:52:56;2.17;;;0.80;;
14247;SDS011;7208;49.826;6.004;2022-09-06T12:57:53;1.23;;;1.02;;
14247;SDS011;7208;49.826;6.004;2022-09-06T13:00:20;1.40;;;0.90;;
14247;SDS011;7208;49.826;6.004;2022-09-06T13:05:19;1.15;;;1.00;;
14247;SDS011;7208;49.826;6.004;2022-09-06T13:07:46;1.80;;;0.77;;
14247;SDS011;7208;49.826;6.004;2022-09-06T13:10:14;1.75;;;1.00;;
14247;SDS011;7208;49.826;6.004;2022-09-06T13:12:43;3.47;;;1.30;;
14247;SDS011;7208;49.826;6.004;2022-09-06T13:15:11;1.67;;;1.27;;
14247;SDS011;7208;49.826;6.004;2022-09-06T13:17:40;2.15;;;1.10;;
14247;SDS011;7208;49.826;6.004;2022-09-06T13:20:10;3.30;;;0.98;;
14247;SDS011;7208;49.826;6.004;2022-09-06T13:25:12;1.20;;;1.10;;
14247;SDS011;7208;49.826;6.004;2022-09-06T13:27:41;1.73;;;0.90;;
14247;SDS011;7208;49.826;6.004;2022-09-06T13:30:19;2.30;;;1.05;;
14247;SDS011;7208;49.826;6.004;2022-09-06T13:32:54;1.17;;;0.82;;
14247;SDS011;7208;49.826;6.004;2022-09-06T13:35:23;2.45;;;1.10;;
14247;SDS011;7208;49.826;6.004;2022-09-06T13:37:52;3.05;;;0.90;;
14247;SDS011;7208;49.826;6.004;2022-09-06T13:40:41;1.35;;;1.00;;
14247;SDS011;7208;49.826;6.004;2022-09-06T13:43:11;1.67;;;0.88;;
14247;SDS011;7208;49.826;6.004;2022-09-06T13:45:38;1.08;;;0.80;;
14247;SDS011;7208;49.826;6.004;2022-09-06T13:48:04;2.30;;;0.85;;
14247;SDS011;7208;49.826;6.004;2022-09-06T13:50:31;1.95;;;0.85;;
14247;SDS011;7208;49.826;6.004;2022-09-06T13:52:57;1.92;;;1.05;;
14247;SDS011;7208;49.826;6.004;2022-09-06T13:55:23;1.25;;;0.95;;
14247;SDS011;7208;49.826;6.004;2022-09-06T13:57:52;1.95;;;1.00;;
14247;SDS011;7208;49.826;6.004;2022-09-06T14:00:18;1.05;;;0.98;;
14247;SDS011;7208;49.826;6.004;2022-09-06T14:02:44;2.28;;;0.90;;
14247;SDS011;7208;49.826;6.004;2022-09-06T14:05:12;2.10;;;1.20;;
14247;SDS011;7208;49.826;6.004;2022-09-06T14:07:38;1.13;;;0.98;;
14247;SDS011;7208;49.826;6.004;2022-09-06T14:10:04;2.45;;;1.10;;
14247;SDS011;7208;49.826;6.004;2022-09-06T14:12:31;2.30;;;1.30;;
14247;SDS011;7208;49.826;6.004;2022-09-06T14:15:00;2.42;;;1.40;;
14247;SDS011;7208;49.826;6.004;2022-09-06T14:17:26;1.95;;;1.25;;
14247;SDS011;7208;49.826;6.004;2022-09-06T14:19:52;2.13;;;0.90;;
14247;SDS011;7208;49.826;6.004;2022-09-06T14:22:19;2.92;;;1.20;;
14247;SDS011;7208;49.826;6.004;2022-09-06T14:24:45;1.60;;;1.20;;
14247;SDS011;7208;49.826;6.004;2022-09-06T14:27:12;3.47;;;1.33;;
14247;SDS011;7208;49.826;6.004;2022-09-06T14:29:38;2.67;;;1.25;;
14247;SDS011;7208;49.826;6.004;2022-09-06T14:32:04;2.78;;;1.05;;
14247;SDS011;7208;49.826;6.004;2022-09-06T14:34:31;1.30;;;1.20;;
14247;SDS011;7208;49.826;6.004;2022-09-06T14:36:57;2.15;;;1.30;;
14247;SDS011;7208;49.826;6.004;2022-09-06T14:39:25;2.10;;;1.10;;
14247;SDS011;7208;49.826;6.004;2022-09-06T14:41:51;2.30;;;1.10;;
14247;SDS011;7208;49.826;6.004;2022-09-06T14:44:18;1.70;;;1.30;;
14247;SDS011;7208;49.826;6.004;2022-09-06T14:46:44;3.30;;;1.58;;
14247;SDS011;7208;49.826;6.004;2022-09-06T14:49:11;2.03;;;1.73;;
14247;SDS011;7208;49.826;6.004;2022-09-06T14:51:37;3.78;;;1.73;;
14247;SDS011;7208;49.826;6.004;2022-09-06T14:54:08;2.72;;;1.65;;
14247;SDS011;7208;49.826;6.004;2022-09-06T14:56:35;2.97;;;1.70;;
14247;SDS011;7208;49.826;6.004;2022-09-06T14:59:03;3.15;;;1.80;;
14247;SDS011;7208;49.826;6.004;2022-09-06T15:01:30;2.85;;;1.80;;
14247;SDS011;7208;49.826;6.004;2022-09-06T15:03:57;2.05;;;1.80;;
14247;SDS011;7208;49.826;6.004;2022-09-06T15:06:24;2.50;;;1.92;;
14247;SDS011;7208;49.826;6.004;2022-09-06T15:08:50;2.95;;;1.77;;
14247;SDS011;7208;49.826;6.004;2022-09-06T15:11:27;2.38;;;1.58;;
14247;SDS011;7208;49.826;6.004;2022-09-06T15:13:54;2.85;;;1.65;;
14247;SDS011;7208;49.826;6.004;2022-09-06T15:16:20;4.00;;;1.80;;
14247;SDS011;7208;49.826;6.004;2022-09-06T15:18:46;3.92;;;1.90;;
14247;SDS011;7208;49.826;6.004;2022-09-06T15:21:13;2.50;;;1.90;;
14247;SDS011;7208;49.826;6.004;2022-09-06T15:23:39;3.38;;;2.08;;
14247;SDS011;7208;49.826;6.004;2022-09-06T15:26:07;3.10;;;1.50;;
14247;SDS011;7208;49.826;6.004;2022-09-06T15:28:36;2.92;;;2.00;;
14247;SDS011;7208;49.826;6.004;2022-09-06T15:31:06;3.03;;;1.95;;
14247;SDS011;7208;49.826;6.004;2022-09-06T15:33:33;3.92;;;1.95;;
14247;SDS011;7208;49.826;6.004;2022-09-06T15:35:59;2.72;;;2.05;;
14247;SDS011;7208;49.826;6.004;2022-09-06T15:38:30;3.42;;;2.17;;
14247;SDS011;7208;49.826;6.004;2022-09-06T15:41:06;3.67;;;2.22;;
14247;SDS011;7208;49.826;6.004;2022-09-06T15:43:32;5.28;;;1.98;;
14247;SDS011;7208;49.826;6.004;2022-09-06T15:45:58;2.38;;;1.77;;
14247;SDS011;7208;49.826;6.004;2022-09-06T15:48:25;4.47;;;2.13;;
14247;SDS011;7208;49.826;6.004;2022-09-06T15:50:51;2.53;;;1.90;;
14247;SDS011;7208;49.826;6.004;2022-09-06T15:53:17;5.93;;;1.95;;
14247;SDS011;7208;49.826;6.004;2022-09-06T15:55:44;3.05;;;2.03;;
14247;SDS011;7208;49.826;6.004;2022-09-06T15:58:25;3.03;;;1.92;;
14247;SDS011;7208;49.826;6.004;2022-09-06T16:01:24;3.00;;;1.90;;
14247;SDS011;7208;49.826;6.004;2022-09-06T16:03:45;6.78;;;2.17;;
14247;SDS011;7208;49.826;6.004;2022-09-06T16:06:15;3.15;;;1.65;;
14247;SDS011;7208;49.826;6.004;2022-09-06T16:08:42;4.10;;;2.03;;
14247;SDS011;7208;49.826;6.004;2022-09-06T16:11:10;4.25;;;2.20;;
14247;SDS011;7208;49.826;6.004;2022-09-06T16:13:37;2.85;;;2.05;;
14247;SDS011;7208;49.826;6.004;2022-09-06T16:16:04;3.42;;;1.90;;
14247;SDS011;7208;49.826;6.004;2022-09-06T16:18:31;4.68;;;2.30;;
14247;SDS011;7208;49.826;6.004;2022-09-06T16:23:34;2.25;;;1.90;;
14247;SDS011;7208;49.826;6.004;2022-09-06T16:26:00;2.38;;;2.15;;
14247;SDS011;7208;49.826;6.004;2022-09-06T16:28:27;4.63;;;1.88;;
14247;SDS011;7208;49.826;6.004;2022-09-06T16:30:54;3.97;;;2.13;;
14247;SDS011;7208;49.826;6.004;2022-09-06T16:33:20;3.30;;;1.80;;
14247;SDS011;7208;49.826;6.004;2022-09-06T16:35:46;3.53;;;1.95;;
14247;SDS011;7208;49.826;6.004;2022-09-06T16:38:12;3.83;;;1.77;;
14247;SDS011;7208;49.826;6.004;2022-09-06T16:40:42;5.25;;;1.52;;
14247;SDS011;7208;49.826;6.004;2022-09-06T16:43:08;2.92;;;1.92;;
14247;SDS011;7208;49.826;6.004;2022-09-06T16:45:35;2.03;;;1.80;;
14247;SDS011;7208;49.826;6.004;2022-09-06T16:48:01;4.22;;;1.90;;
14247;SDS011;7208;49.826;6.004;2022-09-06T16:50:27;2.77;;;1.77;;